Estación Meteorológica Peña el Pijo (Robertgarden) [ 12/11/18 09:50:42 CET ]

Fecha Hora Presion(HPa) Temp (°C) Humedad % Rocio (°C) Viento ( m/s) Direccion Lluvia 1Hora(mm) Lluvia 24H(mm) LLuvia Total(mm)
2018-Feb-15 01:01:35 1011.800 5.8 76 1.9         82.36
2018-Feb-15 02:04:37 1011.300 5.1 76 1.2         82.36
2018-Feb-15 03:01:40 1011.800 4.2 78 0.7         82.36
2018-Feb-15 04:03:07 1011.900 4.4 79 1.1         82.36
2018-Feb-15 05:01:41 1012.100 3.9 80 0.8         82.36
2018-Feb-15 06:01:48 1012.400 3.2 81 0.3         82.36
2018-Feb-15 07:01:51 1012.700 3.0 82 0.2         82.36
2018-Feb-15 08:01:47 1013.300 2.9 83 0.3         82.36
2018-Feb-15 09:01:54 1013.700 2.9 84 0.4         82.36
2018-Feb-15 10:01:50 1013.600 8.8 81 5.7         82.36
2018-Feb-15 11:01:48 1013.700 14.1 64 7.4         82.36
2018-Feb-15 12:01:52 1013.800 17.0 50 6.5         82.36
2018-Feb-15 13:02:02 1013.200 16.4 49 5.6         82.36
2018-Feb-15 14:01:44 1012.800 18.1 46 6.2         82.36
2018-Feb-15 15:01:53 1012.400 19.0 43 6.1         82.36
2018-Feb-15 16:02:01 1012.300 19.1 42 5.8         82.36
2018-Feb-15 17:01:54 1012.000 18.3 44 5.8         82.36
2018-Feb-15 18:01:48 1012.400 15.5 48 4.5         82.36
2018-Feb-15 19:01:35 1013.200 12.1 57 3.8         82.36
2018-Feb-15 20:01:52 1013.800 9.8 64 3.3         82.36
2018-Feb-15 21:01:42 1014.000 7.2 70 2.1         82.36
2018-Feb-15 22:01:55 1013.900 6.1 74 1.8         82.36
2018-Feb-15 23:01:36 1014.200 4.4 76 0.5         82.36

Temperatura Máxima:19°    Temperatura Mínima:
Presión Máxima:1014.200 Hpa    Presión Mínima:1011.300 Hpa


Volver